Time;durP1;ratioP1;P1;durP2;ratioP2;P2;SDS_P1;SDS_P2;PMS_P1;PMS_P2;Temp;Humidity;BMP_temperature;BMP_pressure;BME280_temperature;BME280_humidity;BME280_pressure;Samples;Min_cycle;Max_cycle;Signal;HPM_P1;HPM_P2
2023/12/06 00:00:44;;;;;;;17.58;10.25;;;;;;;2.75;100.00;99826.66;5133837;28;20117;-74
2023/12/06 00:03:14;;;;;;;19.75;10.15;;;;;;;2.68;100.00;99830.19;5174371;28;20025;-71
2023/12/06 00:05:45;;;;;;;19.42;10.60;;;;;;;2.62;100.00;99827.72;5170689;28;20115;-73
2023/12/06 00:08:15;;;;;;;20.38;10.70;;;;;;;2.57;100.00;99815.78;5186191;28;20022;-74
2023/12/06 00:10:47;;;;;;;18.38;10.35;;;;;;;2.62;100.00;99826.84;5183711;28;20040;-73
2023/12/06 00:13:17;;;;;;;21.80;10.38;;;;;;;2.50;100.00;99833.06;5160995;28;20049;-69
2023/12/06 00:15:47;;;;;;;21.20;10.60;;;;;;;2.49;100.00;99833.94;5158916;28;20029;-74
2023/12/06 00:18:19;;;;;;;18.00;10.48;;;;;;;2.56;100.00;99832.13;5184067;28;20033;-74
2023/12/06 00:20:50;;;;;;;19.02;9.48;;;;;;;2.73;100.00;99837.84;5184985;28;20104;-73
2023/12/06 00:23:20;;;;;;;16.58;9.57;;;;;;;2.78;100.00;99838.63;5185335;28;20181;-71
2023/12/06 00:25:50;;;;;;;19.25;10.60;;;;;;;2.83;100.00;99829.09;5170909;28;20025;-74
2023/12/06 00:28:21;;;;;;;19.80;10.73;;;;;;;2.75;100.00;99833.53;5185045;28;20060;-72
2023/12/06 00:30:51;;;;;;;21.35;10.65;;;;;;;2.74;100.00;99834.41;5184377;28;20021;-73
2023/12/06 00:33:21;;;;;;;20.80;10.48;;;;;;;2.76;100.00;99830.94;5185412;28;20545;-72
2023/12/06 00:35:52;;;;;;;19.73;10.38;;;;;;;2.70;100.00;99838.75;5182307;28;20029;-74
2023/12/06 00:38:22;;;;;;;19.02;10.10;;;;;;;2.78;100.00;99841.22;5185664;28;20083;-72
2023/12/06 00:40:53;;;;;;;18.08;10.25;;;;;;;2.65;100.00;99850.03;5172988;28;20495;-73
2023/12/06 00:43:23;;;;;;;18.00;10.15;;;;;;;2.68;100.00;99844.81;5143341;28;20235;-69
2023/12/06 00:45:54;;;;;;;20.02;9.82;;;;;;;2.67;100.00;99849.13;5165283;28;20550;-74
2023/12/06 00:48:24;;;;;;;19.70;10.30;;;;;;;2.63;100.00;99846.59;5166556;28;20050;-70
2023/12/06 00:50:54;;;;;;;21.48;11.10;;;;;;;2.77;100.00;99854.97;5152410;28;20030;-74
2023/12/06 00:56:12;;;;;;;18.00;9.93;;;;;;;2.68;100.00;99850.00;5159393;28;20105;-73
2023/12/06 00:58:43;;;;;;;21.10;10.95;;;;;;;2.71;100.00;99849.94;5152700;28;20046;-73
2023/12/06 01:01:13;;;;;;;18.17;10.05;;;;;;;2.74;100.00;99849.88;5164710;28;20411;-71
2023/12/06 01:03:43;;;;;;;22.23;11.10;;;;;;;2.78;100.00;99851.53;5163057;28;20381;-72
2023/12/06 01:06:13;;;;;;;18.67;10.05;;;;;;;2.66;100.00;99851.75;5162868;28;20026;-73
2023/12/06 01:08:44;;;;;;;20.00;10.85;;;;;;;2.83;100.00;99849.75;5162722;28;20117;-73
2023/12/06 01:11:15;;;;;;;18.35;9.80;;;;;;;2.68;100.00;99848.25;5161963;28;20407;-74
2023/12/06 01:13:45;;;;;;;18.30;10.77;;;;;;;2.80;100.00;99860.09;5156809;28;20041;-73
2023/12/06 01:16:15;;;;;;;20.63;11.55;;;;;;;2.74;100.00;99865.34;5165085;28;20037;-73
2023/12/06 01:18:46;;;;;;;20.13;10.90;;;;;;;2.70;100.00;99855.97;5166221;28;20319;-74
2023/12/06 01:21:16;;;;;;;19.40;10.00;;;;;;;2.77;100.00;99865.28;5165005;28;20022;-74
2023/12/06 01:23:46;;;;;;;19.90;11.30;;;;;;;2.87;100.00;99862.53;5166326;28;20077;-73
2023/12/06 01:26:17;;;;;;;20.35;10.77;;;;;;;2.76;100.00;99874.78;5163263;28;20033;-73
2023/12/06 01:28:47;;;;;;;18.67;11.40;;;;;;;2.76;100.00;99869.63;5163085;28;20618;-74
2023/12/06 01:31:18;;;;;;;22.80;11.27;;;;;;;2.70;100.00;99879.19;5162268;28;20041;-74
2023/12/06 01:33:48;;;;;;;22.17;11.02;;;;;;;2.71;100.00;99880.88;5157163;28;20423;-73
2023/12/06 01:36:18;;;;;;;19.23;10.82;;;;;;;2.71;100.00;99888.63;5152869;28;20602;-73
2023/12/06 01:38:48;;;;;;;21.63;11.05;;;;;;;2.82;100.00;99884.16;5144517;28;20120;-73
2023/12/06 01:41:19;;;;;;;19.90;10.70;;;;;;;2.72;100.00;99888.56;5165841;28;20026;-72
2023/12/06 01:43:49;;;;;;;18.65;10.35;;;;;;;2.74;100.00;99892.00;5159217;28;20032;-73
2023/12/06 01:46:19;;;;;;;20.73;10.77;;;;;;;2.82;100.00;99891.91;5155026;28;20060;-73
2023/12/06 01:48:52;;;;;;;20.83;10.98;;;;;;;2.78;100.00;99895.38;5161817;28;20098;-73
2023/12/06 01:51:23;;;;;;;26.50;11.82;;;;;;;2.75;100.00;99898.00;5162500;28;20381;-74
2023/12/06 01:53:53;;;;;;;20.23;10.90;;;;;;;2.76;100.00;99889.41;5159780;28;20035;-75
2023/12/06 01:56:24;;;;;;;19.38;10.43;;;;;;;2.73;100.00;99904.91;5163349;28;20611;-73
2023/12/06 01:58:55;;;;;;;20.25;10.82;;;;;;;2.71;100.00;99904.09;5151736;28;20037;-73
2023/12/06 02:01:25;;;;;;;22.65;11.73;;;;;;;2.68;100.00;99902.41;5152306;28;20677;-72
2023/12/06 02:03:56;;;;;;;21.30;11.38;;;;;;;2.69;100.00;99905.84;5147423;28;20022;-75
2023/12/06 02:06:26;;;;;;;21.50;11.30;;;;;;;2.71;100.00;99906.66;5143772;28;20105;-72
2023/12/06 02:08:59;;;;;;;20.17;11.13;;;;;;;2.77;100.00;99911.72;5158952;28;20031;-74
2023/12/06 02:11:29;;;;;;;21.92;11.80;;;;;;;2.77;100.00;99911.72;5158912;28;20283;-73
2023/12/06 02:14:00;;;;;;;18.95;11.13;;;;;;;2.82;100.00;99904.81;5161081;28;21255;-74
2023/12/06 02:16:30;;;;;;;20.95;11.18;;;;;;;2.84;100.00;99911.63;5163806;28;20030;-75
2023/12/06 02:19:02;;;;;;;21.50;11.60;;;;;;;2.83;100.00;99912.50;5160353;28;20037;-74
2023/12/06 02:21:32;;;;;;;21.40;11.38;;;;;;;2.76;100.00;99912.59;5155362;28;20022;-73
2023/12/06 02:24:03;;;;;;;19.02;11.10;;;;;;;2.72;100.00;99916.13;5147771;28;20030;-74
2023/12/06 02:26:34;;;;;;;17.63;10.65;;;;;;;2.75;100.00;99918.66;5161106;28;20032;-74
2023/12/06 02:29:04;;;;;;;24.08;11.35;;;;;;;2.70;100.00;99917.88;5144418;28;20397;-73
2023/12/06 02:31:34;;;;;;;20.80;11.73;;;;;;;2.74;100.00;99917.81;5162623;28;20030;-73
2023/12/06 02:34:10;;;;;;;21.02;11.02;;;;;;;2.63;100.00;99917.09;5162444;28;20062;-73
2023/12/06 02:36:42;;;;;;;20.95;11.63;;;;;;;2.66;100.00;99922.22;5162290;28;20065;-75
2023/12/06 02:39:12;;;;;;;22.38;12.32;;;;;;;2.61;100.00;99926.59;5164445;28;20027;-73
2023/12/06 02:41:44;;;;;;;19.95;11.57;;;;;;;2.65;100.00;99924.84;5162697;28;21087;-72
2023/12/06 02:44:14;;;;;;;20.75;11.43;;;;;;;2.65;100.00;99924.84;5161146;28;20028;-72
2023/12/06 02:46:44;;;;;;;21.73;11.32;;;;;;;2.58;100.00;99923.19;5160911;28;20021;-73
2023/12/06 02:49:15;;;;;;;21.67;12.07;;;;;;;2.62;100.00;99914.53;5161315;28;20023;-73
2023/12/06 02:51:45;;;;;;;22.42;11.57;;;;;;;2.57;100.00;99919.78;5161584;28;20037;-74
2023/12/06 02:54:15;;;;;;;19.83;11.35;;;;;;;2.60;100.00;99911.13;5147726;28;20272;-72
2023/12/06 02:56:46;;;;;;;22.85;12.00;;;;;;;2.64;100.00;99910.19;5148813;28;20026;-72
2023/12/06 02:59:16;;;;;;;21.15;11.45;;;;;;;2.72;100.00;99919.53;5129118;28;20278;-72
2023/12/06 03:01:49;;;;;;;19.52;11.60;;;;;;;2.69;100.00;99916.16;5164026;28;20075;-74
2023/12/06 03:04:20;;;;;;;22.40;11.95;;;;;;;2.65;100.00;99917.09;5166901;28;20026;-74
2023/12/06 03:06:50;;;;;;;20.65;12.23;;;;;;;2.58;100.00;99916.31;5150487;28;20026;-74
2023/12/06 03:09:20;;;;;;;22.02;12.45;;;;;;;2.65;100.00;99910.19;5166303;28;20026;-75
2023/12/06 03:11:51;;;;;;;20.80;11.30;;;;;;;2.61;100.00;99916.28;5162361;28;20098;-74
2023/12/06 03:14:22;;;;;;;23.95;12.63;;;;;;;2.65;100.00;99914.50;5164635;28;20030;-73
2023/12/06 03:16:52;;;;;;;20.27;11.05;;;;;;;2.71;100.00;99904.09;5164450;28;20030;-73
2023/12/06 03:19:22;;;;;;;20.95;11.80;;;;;;;2.65;100.00;99910.19;5166355;28;20045;-73
2023/12/06 03:21:53;;;;;;;18.17;10.27;;;;;;;2.69;100.00;99913.59;5164406;28;20081;-73
2023/12/06 03:24:23;;;;;;;23.33;11.43;;;;;;;2.49;100.00;99925.91;5165219;28;20250;-74
2023/12/06 03:26:53;;;;;;;21.75;11.50;;;;;;;2.56;100.00;99922.38;5160166;28;20145;-74
2023/12/06 03:29:23;;;;;;;18.90;10.40;;;;;;;2.57;100.00;99922.34;5166724;28;20026;-73
2023/12/06 03:31:54;;;;;;;22.23;11.68;;;;;;;2.55;100.00;99926.69;5161849;28;20034;-73
2023/12/06 03:34:24;;;;;;;20.80;11.55;;;;;;;2.48;100.00;99929.38;5165919;28;20038;-72
2023/12/06 03:36:54;;;;;;;24.20;11.68;;;;;;;2.48;100.00;99929.38;5165669;28;20034;-74
2023/12/06 03:39:26;;;;;;;19.98;11.55;;;;;;;2.47;100.00;99930.25;5164034;28;20057;-71
2023/12/06 03:41:57;;;;;;;19.85;10.48;;;;;;;2.47;100.00;99925.09;5164147;28;20348;-73
2023/12/06 03:44:27;;;;;;;21.17;11.15;;;;;;;2.66;100.00;99922.22;5163748;28;20018;-73
2023/12/06 03:46:58;;;;;;;20.92;11.25;;;;;;;2.56;100.00;99936.13;5140491;28;20049;-74
2023/12/06 03:49:28;;;;;;;20.48;11.63;;;;;;;2.55;100.00;99936.13;5165169;28;20036;-73
2023/12/06 03:51:58;;;;;;;23.15;12.18;;;;;;;2.49;100.00;99937.06;5162822;28;20049;-75
2023/12/06 03:54:29;;;;;;;21.20;12.40;;;;;;;2.37;100.00;99938.97;5165742;28;20120;-74
2023/12/06 03:56:59;;;;;;;21.80;11.63;;;;;;;2.45;100.00;99942.28;5164217;28;20392;-74
2023/12/06 03:59:30;;;;;;;21.80;11.52;;;;;;;2.48;100.00;99940.53;5165477;28;20030;-75
2023/12/06 04:02:00;;;;;;;19.13;11.10;;;;;;;2.51;100.00;99944.78;5162559;28;20091;-74
2023/12/06 04:04:30;;;;;;;21.30;11.55;;;;;;;2.60;100.00;99942.06;5166105;28;20036;-74
2023/12/06 04:07:01;;;;;;;17.90;10.25;;;;;;;2.67;100.00;99941.13;5164159;28;20553;-74
2023/12/06 04:09:31;;;;;;;14.55;7.65;;;;;;;2.70;100.00;99941.09;5164135;28;20037;-73
2023/12/06 04:12:02;;;;;;;11.93;6.28;;;;;;;2.77;100.00;99945.25;5162942;28;20034;-73
2023/12/06 04:14:32;;;;;;;10.02;5.72;;;;;;;2.88;100.00;99943.38;5166538;28;20026;-74
2023/12/06 04:17:03;;;;;;;8.82;4.70;;;;;;;2.98;100.00;99942.34;5164001;28;20391;-74
2023/12/06 04:19:33;;;;;;;7.60;4.30;;;;;;;2.97;100.00;99944.09;5166605;28;20029;-74
2023/12/06 04:22:04;;;;;;;7.22;4.20;;;;;;;2.94;100.00;99957.06;5163892;28;20069;-74
2023/12/06 04:24:36;;;;;;;9.75;5.20;;;;;;;3.05;100.00;99949.16;5166466;28;20529;-73
2023/12/06 04:27:07;;;;;;;11.00;5.05;;;;;;;3.04;100.00;99956.03;5162138;28;20203;-73
2023/12/06 04:29:37;;;;;;;8.00;5.25;;;;;;;3.05;100.00;99959.47;5166452;28;20029;-74
2023/12/06 04:32:07;;;;;;;8.40;5.03;;;;;;;2.93;100.00;99954.50;5165032;28;20030;-75
2023/12/06 04:34:48;;;;;;;8.60;5.07;;;;;;;2.93;100.00;99959.66;5167028;28;20026;-73
2023/12/06 04:37:18;;;;;;;10.18;5.55;;;;;;;2.98;100.00;99961.28;5162659;28;20511;-75
2023/12/06 04:39:49;;;;;;;8.38;5.25;;;;;;;3.00;100.00;99961.28;5164621;28;20053;-75
2023/12/06 04:42:19;;;;;;;8.57;5.22;;;;;;;2.77;100.00;99971.94;5165817;28;20125;-74
2023/12/06 04:44:50;;;;;;;8.00;4.90;;;;;;;2.74;100.00;99971.97;5164590;28;20091;-74
2023/12/06 04:47:20;;;;;;;7.78;4.78;;;;;;;2.87;100.00;99975.22;5153707;28;20028;-74
2023/12/06 04:49:50;;;;;;;7.47;4.97;;;;;;;2.83;100.00;99979.56;5163873;28;20109;-74
2023/12/06 04:52:21;;;;;;;9.45;5.00;;;;;;;2.83;100.00;99971.00;5154088;28;20052;-75
2023/12/06 04:54:52;;;;;;;6.95;3.72;;;;;;;2.85;100.00;99974.41;5163688;28;20407;-74
2023/12/06 04:57:22;;;;;;;7.13;4.15;;;;;;;2.85;100.00;99971.81;5164209;28;20041;-75
2023/12/06 04:59:52;;;;;;;6.70;4.00;;;;;;;2.73;100.00;99982.31;5164575;28;20591;-75
2023/12/06 05:02:22;;;;;;;7.15;4.38;;;;;;;2.76;100.00;99982.25;5165769;28;20026;-73
2023/12/06 05:04:53;;;;;;;7.22;3.90;;;;;;;2.86;100.00;99984.69;5161270;28;20493;-74
2023/12/06 05:07:23;;;;;;;8.02;4.80;;;;;;;2.73;100.00;99983.16;5163152;28;20026;-74
2023/12/06 05:09:53;;;;;;;7.30;4.65;;;;;;;2.62;100.00;99986.75;5164102;28;20045;-74
2023/12/06 05:12:24;;;;;;;7.95;4.70;;;;;;;2.63;100.00;99985.88;5163301;28;20053;-73
2023/12/06 05:14:54;;;;;;;7.53;3.85;;;;;;;2.69;100.00;99985.81;5150650;28;20026;-72
2023/12/06 05:17:25;;;;;;;6.10;3.85;;;;;;;2.73;100.00;99997.78;5166825;28;20472;-72
2023/12/06 05:19:55;;;;;;;6.45;3.60;;;;;;;2.57;100.00;99999.72;5164465;28;20042;-74
2023/12/06 05:22:25;;;;;;;6.53;4.18;;;;;;;2.57;100.00;99997.13;5167030;28;20092;-73
2023/12/06 05:24:56;;;;;;;7.75;4.07;;;;;;;2.58;100.00;100004.00;5163492;28;20082;-74
2023/12/06 05:27:26;;;;;;;8.48;3.72;;;;;;;2.75;100.00;100006.34;5166438;28;20105;-75
2023/12/06 05:29:57;;;;;;;6.88;3.97;;;;;;;2.54;100.00;100004.88;5165654;28;20503;-75
2023/12/06 05:32:27;;;;;;;6.72;4.45;;;;;;;2.60;100.00;100009.13;5166633;28;20026;-73
2023/12/06 05:34:57;;;;;;;7.13;4.47;;;;;;;2.46;100.00;100005.84;5154188;28;20820;-73
2023/12/06 05:37:28;;;;;;;6.57;4.28;;;;;;;2.56;100.00;100010.03;5167747;28;20523;-75
2023/12/06 05:39:58;;;;;;;5.85;3.88;;;;;;;2.61;100.00;100010.81;5162171;28;20038;-74
2023/12/06 05:42:28;;;;;;;6.65;4.25;;;;;;;2.54;100.00;100014.38;5167554;28;20125;-73
2023/12/06 05:44:58;;;;;;;8.48;3.83;;;;;;;2.53;100.00;100013.50;5160406;28;20106;-72
2023/12/06 05:47:30;;;;;;;7.55;4.88;;;;;;;2.64;100.00;100013.34;5166693;28;20025;-73
2023/12/06 05:50:00;;;;;;;9.65;3.90;;;;;;;2.66;100.00;100012.47;5166407;28;20053;-75
2023/12/06 05:52:30;;;;;;;6.85;3.90;;;;;;;2.59;100.00;100012.56;5154689;28;20022;-73
2023/12/06 05:55:01;;;;;;;8.88;3.83;;;;;;;2.56;100.00;100010.91;5163479;28;20066;-75
2023/12/06 05:57:32;;;;;;;6.22;4.32;;;;;;;2.49;100.00;100021.31;5165892;28;20116;-73
2023/12/06 06:00:05;;;;;;;6.72;4.13;;;;;;;2.62;100.00;100020.28;5165113;28;20318;-72
2023/12/06 06:02:35;;;;;;;7.43;3.83;;;;;;;2.54;100.00;100022.09;5166438;28;20507;-75
2023/12/06 06:05:08;;;;;;;7.55;4.28;;;;;;;2.58;100.00;100016.03;5162326;28;20031;-75
2023/12/06 06:07:38;;;;;;;26.67;4.80;;;;;;;2.54;100.00;100033.25;5162437;28;20026;-73
2023/12/06 06:10:09;;;;;;;7.60;4.88;;;;;;;2.68;100.00;100030.53;5162032;28;20494;-73
2023/12/06 06:12:39;;;;;;;6.85;4.63;;;;;;;2.70;100.00;100029.63;5166657;28;20484;-75
2023/12/06 06:15:09;;;;;;;9.20;5.47;;;;;;;2.66;100.00;100029.69;5162756;28;20045;-73
2023/12/06 06:17:40;;;;;;;7.80;5.40;;;;;;;2.52;100.00;100032.41;5157275;28;20022;-73
2023/12/06 06:20:10;;;;;;;9.13;5.13;;;;;;;2.59;100.00;100030.63;5163225;28;20030;-73
2023/12/06 06:22:41;;;;;;;8.00;4.43;;;;;;;2.65;100.00;100031.41;5154422;28;20742;-73
2023/12/06 06:25:11;;;;;;;7.65;4.82;;;;;;;2.64;100.00;100034.00;5168529;28;20104;-74
2023/12/06 06:27:42;;;;;;;8.02;4.72;;;;;;;2.67;100.00;100033.97;5165394;28;20109;-72
2023/12/06 06:30:13;;;;;;;8.90;4.57;;;;;;;2.52;100.00;100037.56;5168208;28;20110;-73
2023/12/06 06:32:43;;;;;;;9.88;4.82;;;;;;;2.53;100.00;100041.03;5161772;28;20801;-73
2023/12/06 06:35:14;;;;;;;7.88;4.75;;;;;;;2.56;100.00;100046.13;5146237;28;20409;-74
2023/12/06 06:37:46;;;;;;;8.73;4.72;;;;;;;2.58;100.00;100040.09;5152738;28;20028;-74
2023/12/06 06:40:16;;;;;;;8.05;4.30;;;;;;;2.61;100.00;100044.34;5156002;28;20602;-73
2023/12/06 06:42:46;;;;;;;9.25;5.15;;;;;;;2.55;100.00;100045.31;5167075;28;20369;-72
2023/12/06 06:45:17;;;;;;;8.60;4.90;;;;;;;2.45;100.00;100058.28;5148535;28;20298;-74
2023/12/06 06:47:47;;;;;;;9.23;4.95;;;;;;;2.54;100.00;100048.72;5165696;28;20034;-74
2023/12/06 06:50:17;;;;;;;9.38;5.50;;;;;;;2.42;100.00;100063.50;5169388;28;20041;-74
2023/12/06 06:52:48;;;;;;;10.80;5.35;;;;;;;2.31;100.00;100066.19;5169856;28;20078;-74
2023/12/06 06:55:18;;;;;;;10.02;6.07;;;;;;;2.28;100.00;100075.66;5208400;23;20040;-75
2023/12/06 06:57:48;;;;;;;10.30;6.07;;;;;;;2.48;100.00;100073.75;5207687;28;20539;-75
2023/12/06 07:00:19;;;;;;;10.73;6.25;;;;;;;2.51;100.00;100076.28;5208460;28;20079;-75
2023/12/06 07:02:50;;;;;;;10.80;6.45;;;;;;;2.50;100.00;100077.16;5207034;28;20398;-75
2023/12/06 07:05:20;;;;;;;10.00;6.53;;;;;;;2.50;100.00;100083.16;5198597;28;20026;-76
2023/12/06 07:07:50;;;;;;;11.38;6.35;;;;;;;2.55;100.00;100077.97;5184349;28;20022;-75
2023/12/06 07:10:22;;;;;;;12.27;6.22;;;;;;;2.55;100.00;100083.13;5185580;28;20026;-75
2023/12/06 07:12:52;;;;;;;10.85;5.90;;;;;;;2.42;100.00;100089.28;5187769;28;20523;-75
2023/12/06 07:15:24;;;;;;;11.80;6.35;;;;;;;2.39;100.00;100095.34;5187248;28;20030;-75
2023/12/06 07:17:54;;;;;;;11.02;6.72;;;;;;;2.40;100.00;100097.03;5183962;28;20037;-74
2023/12/06 07:20:24;;;;;;;11.20;6.63;;;;;;;2.43;100.00;100097.00;5187977;28;20076;-72
2023/12/06 07:22:56;;;;;;;10.80;6.28;;;;;;;2.38;100.00;100103.94;5186814;28;20040;-75
2023/12/06 07:25:27;;;;;;;14.68;7.53;;;;;;;2.31;100.00;100099.69;5187900;28;20471;-74
2023/12/06 07:27:57;;;;;;;19.65;6.97;;;;;;;2.36;100.00;100104.81;5187280;28;20036;-76
2023/12/06 07:30:28;;;;;;;14.73;6.85;;;;;;;2.40;100.00;100106.50;5190065;28;20131;-75
2023/12/06 07:32:58;;;;;;;12.85;7.32;;;;;;;2.32;100.00;100108.31;5186503;28;20064;-76
2023/12/06 07:35:28;;;;;;;15.25;7.53;;;;;;;2.36;100.00;100104.81;5187710;28;20040;-75
2023/12/06 07:37:59;;;;;;;13.40;7.72;;;;;;;2.33;100.00;100115.16;5185618;28;20443;-75
2023/12/06 07:40:29;;;;;;;12.63;7.82;;;;;;;2.33;100.00;100115.16;5186156;28;20033;-75
2023/12/06 07:42:59;;;;;;;14.10;8.07;;;;;;;2.40;100.00;100109.94;5186247;28;20035;-75
2023/12/06 07:45:30;;;;;;;13.07;7.75;;;;;;;2.37;100.00;100116.84;5186001;28;20025;-75
2023/12/06 07:48:02;;;;;;;15.52;8.80;;;;;;;2.30;100.00;100120.34;5188471;28;20076;-75
2023/12/06 07:50:33;;;;;;;12.32;7.47;;;;;;;2.44;100.00;100121.03;5190111;28;20570;-74
2023/12/06 07:53:03;;;;;;;13.23;7.13;;;;;;;2.47;100.00;100121.03;5189693;28;20053;-75
2023/12/06 07:55:33;;;;;;;14.95;7.90;;;;;;;2.40;100.00;100125.41;5187131;28;20304;-75
2023/12/06 07:58:04;;;;;;;13.18;7.90;;;;;;;2.44;100.00;100119.34;5187312;28;20451;-75
2023/12/06 08:00:36;;;;;;;16.20;8.38;;;;;;;2.54;100.00;100125.25;5189430;28;20037;-75
2023/12/06 08:03:08;;;;;;;13.55;7.82;;;;;;;2.51;100.00;100122.72;5184978;28;20030;-76
2023/12/06 08:05:38;;;;;;;14.35;7.45;;;;;;;2.38;100.00;100126.28;5184496;28;20022;-74
2023/12/06 08:08:08;;;;;;;14.00;7.97;;;;;;;2.48;100.00;100130.47;5190311;28;20032;-75
2023/12/06 08:10:42;;;;;;;13.98;7.85;;;;;;;2.47;100.00;100134.78;5187035;28;20104;-76
2023/12/06 08:13:12;;;;;;;13.73;8.05;;;;;;;2.40;100.00;100140.00;5183797;28;20018;-75
2023/12/06 08:15:43;;;;;;;17.77;8.85;;;;;;;2.45;100.00;100139.09;5189025;28;20037;-75
2023/12/06 08:18:13;;;;;;;15.73;8.13;;;;;;;2.44;100.00;100144.25;5183280;28;20375;-75
2023/12/06 08:20:43;;;;;;;18.40;9.35;;;;;;;2.54;100.00;100146.72;5183683;28;20040;-75
2023/12/06 08:23:14;;;;;;;42.58;16.58;;;;;;;2.51;100.00;100151.06;5189283;28;20569;-75
2023/12/06 08:25:44;;;;;;;27.00;12.10;;;;;;;2.47;100.00;100155.41;5189474;28;20029;-75
2023/12/06 08:28:16;;;;;;;15.75;8.77;;;;;;;2.48;100.00;100157.09;5187463;28;20123;-75
2023/12/06 08:30:46;;;;;;;13.93;8.35;;;;;;;2.71;100.00;100160.28;5183040;28;20029;-76
2023/12/06 08:33:18;;;;;;;18.65;9.02;;;;;;;2.56;100.00;100162.19;5185945;28;20072;-75
2023/12/06 08:35:50;;;;;;;14.07;7.75;;;;;;;2.61;100.00;100160.41;5186722;28;20502;-75
2023/12/06 08:38:21;;;;;;;15.32;8.32;;;;;;;2.61;100.00;100162.97;5185645;28;20026;-74
2023/12/06 08:40:51;;;;;;;12.52;7.68;;;;;;;2.60;100.00;100169.00;5185767;28;20036;-74
2023/12/06 08:43:21;;;;;;;15.13;8.15;;;;;;;2.61;100.00;100169.00;5188757;28;20113;-75
2023/12/06 08:45:51;;;;;;;13.23;7.82;;;;;;;2.65;100.00;100165.53;5187141;28;20022;-75
2023/12/06 08:48:22;;;;;;;13.73;8.30;;;;;;;2.58;100.00;100163.03;5187952;28;20483;-76
2023/12/06 08:50:52;;;;;;;12.50;7.50;;;;;;;2.49;100.00;100165.72;5186212;28;20025;-75
2023/12/06 08:53:22;;;;;;;16.45;7.45;;;;;;;2.49;100.00;100168.28;5188809;28;20029;-75
2023/12/06 08:55:54;;;;;;;13.90;8.52;;;;;;;2.55;100.00;100178.53;5185251;28;20128;-75
2023/12/06 08:58:24;;;;;;;15.32;8.30;;;;;;;2.47;100.00;100178.59;5185311;28;20060;-72
2023/12/06 09:00:55;;;;;;;14.25;8.13;;;;;;;2.55;100.00;100176.81;5186564;28;20041;-75
2023/12/06 09:03:25;;;;;;;13.90;8.15;;;;;;;2.48;100.00;100182.06;5185927;28;20124;-74
2023/12/06 09:05:55;;;;;;;13.80;8.20;;;;;;;2.70;100.00;100188.69;5184175;28;20034;-76
2023/12/06 09:08:25;;;;;;;12.95;7.53;;;;;;;2.54;100.00;100197.44;5185829;28;20487;-75
2023/12/06 09:10:56;;;;;;;12.40;6.93;;;;;;;2.72;100.00;100192.09;5183855;28;20039;-74
2023/12/06 09:13:26;;;;;;;12.68;7.18;;;;;;;2.75;100.00;100194.66;5187533;28;20124;-75
2023/12/06 09:15:57;;;;;;;12.38;7.25;;;;;;;2.75;100.00;100203.25;5185874;28;20048;-75
2023/12/06 09:21:54;;;;;;;11.52;7.50;;;;;;;2.63;100.00;100205.09;5182237;28;20048;-72
2023/12/06 09:24:24;;;;;;;14.93;8.52;;;;;;;2.73;100.00;100209.28;5174330;28;20020;-71
2023/12/06 09:26:55;;;;;;;12.77;7.88;;;;;;;2.66;100.00;100207.66;5182745;28;20025;-74
2023/12/06 09:29:25;;;;;;;12.88;7.50;;;;;;;2.59;100.00;100216.31;5188021;28;20045;-75
2023/12/06 09:31:55;;;;;;;16.55;8.15;;;;;;;2.76;100.00;100214.41;5183634;28;20426;-75
2023/12/06 09:34:26;;;;;;;12.55;7.50;;;;;;;2.74;100.00;100217.03;5184962;28;20348;-76
2023/12/06 09:36:56;;;;;;;12.23;7.47;;;;;;;2.78;100.00;100215.25;5181028;28;20467;-75
2023/12/06 09:39:26;;;;;;;14.45;8.50;;;;;;;2.68;100.00;100213.66;5186085;28;20037;-77
2023/12/06 09:41:57;;;;;;;13.25;7.90;;;;;;;2.59;100.00;100221.47;5185617;28;20502;-75
2023/12/06 09:44:27;;;;;;;14.43;8.00;;;;;;;2.72;100.00;100217.91;5186234;28;20033;-76
2023/12/06 09:46:59;;;;;;;18.48;8.68;;;;;;;2.55;100.00;100222.38;5186256;28;20037;-75
2023/12/06 09:49:29;;;;;;;13.00;7.55;;;;;;;2.69;100.00;100217.94;5185704;28;20405;-72
2023/12/06 09:52:07;;;;;;;12.57;7.30;;;;;;;2.61;100.00;100225.75;5184799;28;20033;-76
2023/12/06 09:54:42;;;;;;;12.90;7.50;;;;;;;2.58;100.00;100235.22;5187812;28;20018;-74
2023/12/06 09:57:12;;;;;;;;;;;;;;;2.79;100.00;100230.72;5181715;28;20080;-74
2023/12/06 09:59:43;;;;;;;13.68;6.53;;;;;;;2.72;100.00;100234.22;5181584;28;20489;-72
2023/12/06 10:02:13;;;;;;;13.98;7.53;;;;;;;2.69;100.00;100231.69;5180699;28;20037;-75
2023/12/06 10:04:44;;;;;;;11.10;6.90;;;;;;;2.83;100.00;100232.41;5180201;28;20036;-73
2023/12/06 10:07:14;;;;;;;13.07;7.18;;;;;;;2.87;100.00;100233.22;5178205;28;20442;-75
2023/12/06 10:09:49;;;;;;;14.35;7.63;;;;;;;2.83;100.00;100234.16;5187146;28;20022;-73
2023/12/06 10:12:21;;;;;;;14.80;7.15;;;;;;;2.77;100.00;100229.03;5189196;28;20095;-75
2023/12/06 10:15:00;;;;;;;13.55;7.55;;;;;;;2.84;100.00;100233.28;5184743;28;20032;-75
2023/12/06 10:17:30;;;;;;;14.70;7.13;;;;;;;2.90;100.00;100225.47;5189512;28;20030;-75
2023/12/06 10:20:01;;;;;;;13.50;8.02;;;;;;;2.91;100.00;100227.16;5191809;28;20034;-75
2023/12/06 10:22:34;;;;;;;12.80;7.53;;;;;;;2.85;100.00;100228.06;5188412;28;20094;-75
2023/12/06 10:25:06;;;;;;;13.32;7.00;;;;;;;2.86;100.00;100224.63;5184147;28;20437;-75
2023/12/06 10:27:37;;;;;;;11.95;7.30;;;;;;;2.73;100.00;100237.66;5190716;28;20163;-76
2023/12/06 10:30:08;;;;;;;11.95;7.20;;;;;;;2.57;100.00;100239.56;5191379;28;20543;-76
2023/12/06 10:32:39;;;;;;;11.27;6.10;;;;;;;2.69;100.00;100233.41;5184065;28;20109;-75
2023/12/06 10:35:09;;;;;;;13.32;7.40;;;;;;;2.73;100.00;100228.22;5184275;28;20022;-75
2023/12/06 10:37:41;;;;;;;12.60;6.93;;;;;;;2.68;100.00;100234.28;5189969;28;20030;-76
2023/12/06 10:40:12;;;;;;;13.77;8.00;;;;;;;2.66;100.00;100236.03;5187331;28;20048;-74
2023/12/06 10:42:48;;;;;;;13.63;7.93;;;;;;;2.64;100.00;100235.16;5185878;28;20029;-72
2023/12/06 10:45:20;;;;;;;13.45;7.53;;;;;;;2.79;100.00;100237.59;5188171;28;20048;-75
2023/12/06 10:47:52;;;;;;;14.88;7.93;;;;;;;2.83;100.00;100232.41;5191253;28;20124;-75
2023/12/06 10:50:24;;;;;;;13.77;7.90;;;;;;;2.80;100.00;100247.03;5189343;28;20179;-75
2023/12/06 10:52:55;;;;;;;13.70;7.65;;;;;;;2.74;100.00;100236.78;5188249;28;20490;-76
2023/12/06 10:55:29;;;;;;;14.23;7.53;;;;;;;2.77;100.00;100231.59;5191808;28;20076;-75
2023/12/06 10:58:00;;;;;;;16.38;8.10;;;;;;;2.67;100.00;100230.00;5191299;28;20065;-72
2023/12/06 11:00:31;;;;;;;18.15;8.38;;;;;;;2.71;100.00;100236.84;5191628;28;20063;-76
2023/12/06 11:03:02;;;;;;;14.88;8.30;;;;;;;2.62;100.00;100236.91;5193195;28;20052;-75
2023/12/06 11:05:39;;;;;;;15.48;8.02;;;;;;;2.64;100.00;100236.03;5193729;28;20033;-75
2023/12/06 11:08:40;;;;;;;14.90;7.95;;;;;;;2.71;100.00;100239.41;5192195;28;20026;-75
2023/12/06 11:11:29;;;;;;;15.88;8.55;;;;;;;2.62;100.00;100242.94;5191332;28;20026;-75
2023/12/06 11:14:38;;;;;;;16.08;8.05;;;;;;;2.70;100.00;100235.13;5184017;28;20088;-71
2023/12/06 11:17:27;;;;;;;16.67;9.27;;;;;;;2.71;100.00;100239.41;5154100;28;20411;-75
2023/12/06 11:19:57;;;;;;;18.77;9.50;;;;;;;2.59;100.00;100237.81;5198441;28;20041;-75
2023/12/06 11:22:28;;;;;;;17.77;9.75;;;;;;;2.67;100.00;100235.16;5186593;28;20398;-76
2023/12/06 11:24:59;;;;;;;19.23;10.02;;;;;;;2.70;100.00;100235.13;5184537;28;20111;-75
2023/12/06 11:27:29;;;;;;;18.90;9.65;;;;;;;2.75;100.00;100228.19;5180961;28;20033;-75
2023/12/06 11:30:00;;;;;;;20.67;10.57;;;;;;;2.72;100.00;100234.22;5185135;28;20025;-74
2023/12/06 11:32:42;;;;;;;20.98;10.90;;;;;;;2.66;100.00;100233.44;5187990;28;20026;-76
2023/12/06 11:35:12;;;;;;;19.52;10.63;;;;;;;2.63;100.00;100233.44;5188986;28;20018;-75
2023/12/06 11:37:55;;;;;;;19.13;10.35;;;;;;;2.71;100.00;100229.09;5189594;28;20041;-75
2023/12/06 11:40:26;;;;;;;21.42;10.70;;;;;;;2.67;100.00;100232.56;5184957;28;20029;-75
2023/12/06 11:43:00;;;;;;;21.60;11.30;;;;;;;2.72;100.00;100235.97;5186130;28;20026;-73